Мемориал "Звонница"

СКИДКИ НА СМАРТФОНЫ!

Карта отелей и гостиниц, располагающихся рядом с аэропортом Мемориал "Звонница" :

Мемориал "Звонница" Белгородская область 51° 0' 59.8212" N, 36° 40' 13.7388" E
Код аэродрома ИКАО
HC3C
Код аэродрома RU
ХЦ3Ц
Координаты
N51.01662° E036.67048°
Превышение над уровнем моря
251
Основная полоса
13/31
Курс магнитный
128,5/308,5
Длина основной ВПП
90
Ширина основной ВПП
28
Покрытие основной ВПП
Твёрдое (асфальт)
Освещение ВПП
Нет
Тип: 
Вертодром
Класс аэродрома: 
Принадлежность: 
ГА
Статус: 
Действующий
Сайт: 
E-mail аэродрома: 
Страна: 
Россия
Регион: 
Белгородская область
Город: 
Дополнительная информация: 
3 ПП для вертолетов в одну линию. Маркированы.

Скидки на навигаторы!

Найти трансфер

С помощью этой формы Вы можете найти трансфер из аэропорта Мемориал "Звонница" в город, аэропорт или вокзал:

Погода в аэропортах:

Авиационная погода в Толмачево

Регион: 
Погода METAR: 
UNNT 072100Z 19004MPS 9000 -SN BKN043 M22/M25 Q1039 R25/420150 R34/////// NOSIG RMK QFE769/1025
Время наблюдения
2022-12-07T21:00:00Z
Температура C
-22.0
Точка росы
-25.0
Направление ветра
190
Скорость ветра (узлы)
8
Метео видимость
5.59
Облачность
BKN
Нижняя граница облачности (футы)
4300
Явления погоды
-SN
Условия полета
VFR
Аэропорт подробнее: 
BKN – значительная (рассеянная, разорванная) облачность;
-SN – слабый снег;

Авиационная погода в Берлевоге

Регион: 
Погода METAR: 
ENBV 072050Z 08019KT 9999 VCSH FEW012 BKN028 03/M01 Q1011
Время наблюдения
2022-12-07T20:50:00Z
Температура C
3.0
Точка росы
-1.0
Направление ветра
80
Скорость ветра (узлы)
19
Метео видимость
6.21
Облачность
FEW
BKN
Нижняя граница облачности (футы)
1200
2800
Явления погоды
VCSH
Условия полета
MVFR
FEW – незначительная облачность; BKN – значительная (рассеянная, разорванная) облачность;

Авиационная погода в Пулково

Регион: 
Погода METAR: 
ULLI 072100Z 13005MPS 7000 -SHSN BKN017CB OVC033 M05/M09 Q1007 R10R/450545 NOSIG
Время наблюдения
2022-12-07T21:00:00Z
Температура C
-5.0
Точка росы
-9.0
Направление ветра
130
Скорость ветра (узлы)
10
Метео видимость
4.35
Облачность
BKN
OVC
Нижняя граница облачности (футы)
1700
3300
Явления погоды
-SHSN
Условия полета
MVFR
Аэропорт подробнее: 
BKN – значительная (рассеянная, разорванная) облачность; OVC – сплошная облачность;
-SHSN - слабый ливневой снег;

Авиационная погода в Храброво

Регион: 
Погода METAR: 
UMKK 072100Z 22005MPS 9999 -SHSNRA SCT007 BKN019CB 01/01 Q0998 RESHRA RESHSN R24/690295 NOSIG RMK QBB210 QFE748/0997
Время наблюдения
2022-12-07T21:00:00Z
Температура C
1.0
Точка росы
1.0
Направление ветра
220
Скорость ветра (узлы)
10
Метео видимость
6.21
Облачность
SCT
BKN
Нижняя граница облачности (футы)
700
1900
Явления погоды
-SHSN -SHRA SHSN
Условия полета
MVFR
Аэропорт подробнее: 
SCT – разбросанная отдельная облачность; BKN – значительная (рассеянная, разорванная) облачность;
-SHRA - слабый ливневой дождь; -SHSN - слабый ливневой снег;